NCAR-RAP Real-Time Weather Data

Output produced by METARs form (24 January 2022  23:39 UTC)
found at http://weather.rap.ucar.edu/surface/
 
KNYC 242251Z AUTO VRB04KT 10SM FEW037 SCT065 OVC095 00/M08 A2990 RMK AO2 SLP119 T00001078
KNYC 242151Z AUTO VRB05KT 10SM BKN035 00/M08 A2989 RMK AO2 SLP114 T00001078
KNYC 242051Z AUTO 06004KT 10SM OVC035 01/M08 A2989 RMK AO2 SLP113 T00061078 55007
KNYC 241951Z AUTO 00000KT 10SM OVC035 00/M09 A2988 RMK AO2 SLP110 T00001089
KNYC 241851Z AUTO 00000KT 10SM OVC035 M01/M08 A2990 RMK AO2 SLP116 T10061083
KNYC 241751Z AUTO 06003KT 10SM FEW033 M01/M09 A2991 RMK AO2 SLP121 T10111089 11006 21033 58019
KNYC 241651Z AUTO VRB05KT 10SM BKN030 M01/M08 A2993 RMK AO2 SLP127 T10061083
KNYC 241551Z AUTO VRB03KT 10SM OVC031 M02/M10 A2996 RMK AO2 SLP138 T10221100
KNYC 241505Z AUTO VRB04KT 10SM OVC030 M03/M10 A2996 RMK AO2 T10281100
KNYC 241451Z AUTO VRB06KT 10SM OVC027 M03/M10 A2996 RMK AO2 SLP140 T10281100 51024
KNYC 241351Z AUTO VRB05KT 8SM OVC021 M03/M09 A2995 RMK AO2 SLP136 T10281089